sensor_id;sensor_type;location;lat;lon;timestamp;P1;durP1;ratioP1;P2;durP2;ratioP2
9976;SDS011;5029;47.378;11.776;2023-02-28T00:03:09;4.03;;;3.50;;
9976;SDS011;5029;47.378;11.776;2023-02-28T00:08:13;5.20;;;3.87;;
9976;SDS011;5029;47.378;11.776;2023-02-28T00:13:17;4.10;;;3.70;;
9976;SDS011;5029;47.378;11.776;2023-02-28T00:18:20;5.00;;;4.07;;
9976;SDS011;5029;47.378;11.776;2023-02-28T00:23:24;6.00;;;3.83;;
9976;SDS011;5029;47.378;11.776;2023-02-28T00:28:29;5.37;;;3.80;;
9976;SDS011;5029;47.378;11.776;2023-02-28T00:33:32;4.07;;;3.43;;
9976;SDS011;5029;47.378;11.776;2023-02-28T00:38:36;4.77;;;3.97;;
9976;SDS011;5029;47.378;11.776;2023-02-28T00:43:41;4.47;;;4.07;;
9976;SDS011;5029;47.378;11.776;2023-02-28T00:48:44;4.37;;;3.70;;
9976;SDS011;5029;47.378;11.776;2023-02-28T00:53:47;7.63;;;3.80;;
9976;SDS011;5029;47.378;11.776;2023-02-28T00:58:52;4.53;;;3.77;;
9976;SDS011;5029;47.378;11.776;2023-02-28T01:03:55;3.73;;;3.43;;
9976;SDS011;5029;47.378;11.776;2023-02-28T01:08:59;5.00;;;3.47;;
9976;SDS011;5029;47.378;11.776;2023-02-28T01:14:04;3.80;;;3.50;;
9976;SDS011;5029;47.378;11.776;2023-02-28T01:19:07;3.60;;;3.30;;
9976;SDS011;5029;47.378;11.776;2023-02-28T01:24:10;3.63;;;3.17;;
9976;SDS011;5029;47.378;11.776;2023-02-28T01:29:16;3.90;;;3.57;;
9976;SDS011;5029;47.378;11.776;2023-02-28T01:34:19;3.20;;;2.90;;
9976;SDS011;5029;47.378;11.776;2023-02-28T01:39:22;3.23;;;2.93;;
9976;SDS011;5029;47.378;11.776;2023-02-28T01:50:00;4.67;;;3.67;;
9976;SDS011;5029;47.378;11.776;2023-02-28T01:55:08;3.60;;;3.27;;
9976;SDS011;5029;47.378;11.776;2023-02-28T02:00:15;3.40;;;3.10;;
9976;SDS011;5029;47.378;11.776;2023-02-28T02:05:21;3.30;;;2.70;;
9976;SDS011;5029;47.378;11.776;2023-02-28T02:10:27;3.23;;;2.93;;
9976;SDS011;5029;47.378;11.776;2023-02-28T02:15:38;3.80;;;3.23;;
9976;SDS011;5029;47.378;11.776;2023-02-28T02:26:27;3.50;;;3.20;;
9976;SDS011;5029;47.378;11.776;2023-02-28T02:32:20;3.20;;;2.90;;
9976;SDS011;5029;47.378;11.776;2023-02-28T02:37:50;3.10;;;2.80;;
9976;SDS011;5029;47.378;11.776;2023-02-28T02:42:58;3.63;;;2.90;;
9976;SDS011;5029;47.378;11.776;2023-02-28T02:48:06;3.33;;;3.03;;
9976;SDS011;5029;47.378;11.776;2023-02-28T02:53:16;3.37;;;3.07;;
9976;SDS011;5029;47.378;11.776;2023-02-28T02:58:23;3.10;;;2.87;;
9976;SDS011;5029;47.378;11.776;2023-02-28T03:03:31;3.23;;;2.93;;
9976;SDS011;5029;47.378;11.776;2023-02-28T03:08:38;3.33;;;2.80;;
9976;SDS011;5029;47.378;11.776;2023-02-28T03:13:52;4.30;;;3.10;;
9976;SDS011;5029;47.378;11.776;2023-02-28T03:24:43;3.20;;;2.90;;
9976;SDS011;5029;47.378;11.776;2023-02-28T03:29:54;3.43;;;3.13;;
9976;SDS011;5029;47.378;11.776;2023-02-28T03:35:04;3.20;;;2.90;;
9976;SDS011;5029;47.378;11.776;2023-02-28T03:40:14;3.87;;;3.10;;
9976;SDS011;5029;47.378;11.776;2023-02-28T03:45:21;3.77;;;3.27;;
9976;SDS011;5029;47.378;11.776;2023-02-28T03:50:29;3.10;;;2.80;;
9976;SDS011;5029;47.378;11.776;2023-02-28T03:55:41;3.93;;;2.83;;
9976;SDS011;5029;47.378;11.776;2023-02-28T04:00:47;3.13;;;2.90;;
9976;SDS011;5029;47.378;11.776;2023-02-28T04:05:55;3.30;;;3.00;;
9976;SDS011;5029;47.378;11.776;2023-02-28T04:11:03;3.77;;;2.93;;
9976;SDS011;5029;47.378;11.776;2023-02-28T04:16:11;3.33;;;2.90;;
9976;SDS011;5029;47.378;11.776;2023-02-28T04:21:33;3.90;;;3.17;;
9976;SDS011;5029;47.378;11.776;2023-02-28T04:26:40;3.73;;;3.13;;
9976;SDS011;5029;47.378;11.776;2023-02-28T04:31:45;3.10;;;2.80;;
9976;SDS011;5029;47.378;11.776;2023-02-28T04:36:48;3.63;;;3.33;;
9976;SDS011;5029;47.378;11.776;2023-02-28T04:42:12;3.30;;;3.00;;
9976;SDS011;5029;47.378;11.776;2023-02-28T04:47:15;4.43;;;2.80;;
9976;SDS011;5029;47.378;11.776;2023-02-28T04:52:19;3.13;;;2.83;;
9976;SDS011;5029;47.378;11.776;2023-02-28T04:57:23;3.30;;;3.00;;
9976;SDS011;5029;47.378;11.776;2023-02-28T05:02:27;3.17;;;2.70;;
9976;SDS011;5029;47.378;11.776;2023-02-28T05:07:30;3.37;;;2.80;;
9976;SDS011;5029;47.378;11.776;2023-02-28T05:12:35;3.53;;;3.23;;
9976;SDS011;5029;47.378;11.776;2023-02-28T05:17:38;5.07;;;3.43;;
9976;SDS011;5029;47.378;11.776;2023-02-28T05:22:41;4.67;;;3.53;;
9976;SDS011;5029;47.378;11.776;2023-02-28T05:27:47;3.93;;;3.53;;
9976;SDS011;5029;47.378;11.776;2023-02-28T05:32:51;3.77;;;3.40;;
9976;SDS011;5029;47.378;11.776;2023-02-28T05:37:54;4.03;;;3.63;;
9976;SDS011;5029;47.378;11.776;2023-02-28T05:42:59;4.73;;;3.97;;
9976;SDS011;5029;47.378;11.776;2023-02-28T05:48:02;7.53;;;4.30;;
9976;SDS011;5029;47.378;11.776;2023-02-28T05:53:06;4.60;;;3.60;;
9976;SDS011;5029;47.378;11.776;2023-02-28T05:58:10;4.57;;;3.50;;
9976;SDS011;5029;47.378;11.776;2023-02-28T06:03:13;3.57;;;3.27;;
9976;SDS011;5029;47.378;11.776;2023-02-28T06:08:17;4.10;;;3.70;;
9976;SDS011;5029;47.378;11.776;2023-02-28T06:13:22;4.87;;;3.93;;
9976;SDS011;5029;47.378;11.776;2023-02-28T06:18:25;4.57;;;3.40;;
9976;SDS011;5029;47.378;11.776;2023-02-28T06:23:28;4.30;;;3.90;;
9976;SDS011;5029;47.378;11.776;2023-02-28T06:28:33;4.10;;;3.70;;
9976;SDS011;5029;47.378;11.776;2023-02-28T06:33:37;4.10;;;3.70;;
9976;SDS011;5029;47.378;11.776;2023-02-28T06:38:41;5.37;;;4.13;;
9976;SDS011;5029;47.378;11.776;2023-02-28T06:43:47;5.03;;;3.90;;
9976;SDS011;5029;47.378;11.776;2023-02-28T06:48:50;3.80;;;3.40;;
9976;SDS011;5029;47.378;11.776;2023-02-28T06:53:53;4.73;;;4.17;;
9976;SDS011;5029;47.378;11.776;2023-02-28T06:58:58;4.27;;;3.87;;
9976;SDS011;5029;47.378;11.776;2023-02-28T07:04:02;4.53;;;3.63;;
9976;SDS011;5029;47.378;11.776;2023-02-28T07:09:07;4.03;;;3.63;;
9976;SDS011;5029;47.378;11.776;2023-02-28T07:14:13;5.10;;;4.23;;
9976;SDS011;5029;47.378;11.776;2023-02-28T07:19:16;4.60;;;4.20;;
9976;SDS011;5029;47.378;11.776;2023-02-28T07:24:20;4.83;;;4.10;;
9976;SDS011;5029;47.378;11.776;2023-02-28T07:29:28;4.27;;;3.87;;
9976;SDS011;5029;47.378;11.776;2023-02-28T07:34:32;5.43;;;4.77;;
9976;SDS011;5029;47.378;11.776;2023-02-28T07:39:35;5.17;;;4.67;;
9976;SDS011;5029;47.378;11.776;2023-02-28T07:44:40;5.13;;;4.63;;
9976;SDS011;5029;47.378;11.776;2023-02-28T07:49:44;5.87;;;4.93;;
9976;SDS011;5029;47.378;11.776;2023-02-28T07:54:49;5.63;;;4.97;;
9976;SDS011;5029;47.378;11.776;2023-02-28T07:59:54;5.80;;;4.50;;
9976;SDS011;5029;47.378;11.776;2023-02-28T08:04:57;6.73;;;5.13;;
9976;SDS011;5029;47.378;11.776;2023-02-28T08:10:02;6.30;;;5.00;;
9976;SDS011;5029;47.378;11.776;2023-02-28T08:15:09;5.23;;;4.73;;
9976;SDS011;5029;47.378;11.776;2023-02-28T08:20:13;5.43;;;4.90;;
9976;SDS011;5029;47.378;11.776;2023-02-28T08:25:16;8.20;;;5.03;;
9976;SDS011;5029;47.378;11.776;2023-02-28T08:30:21;7.80;;;6.10;;
9976;SDS011;5029;47.378;11.776;2023-02-28T08:35:25;5.07;;;4.57;;
9976;SDS011;5029;47.378;11.776;2023-02-28T08:40:28;5.00;;;4.50;;
9976;SDS011;5029;47.378;11.776;2023-02-28T08:45:33;5.43;;;4.93;;
9976;SDS011;5029;47.378;11.776;2023-02-28T08:50:36;5.00;;;4.40;;
9976;SDS011;5029;47.378;11.776;2023-02-28T08:55:40;4.43;;;3.93;;
9976;SDS011;5029;47.378;11.776;2023-02-28T09:00:44;4.47;;;4.07;;
9976;SDS011;5029;47.378;11.776;2023-02-28T09:05:57;4.40;;;4.00;;
9976;SDS011;5029;47.378;11.776;2023-02-28T09:11:02;4.20;;;3.90;;
9976;SDS011;5029;47.378;11.776;2023-02-28T09:16:08;4.63;;;4.20;;
9976;SDS011;5029;47.378;11.776;2023-02-28T09:21:15;4.33;;;3.93;;
9976;SDS011;5029;47.378;11.776;2023-02-28T09:26:21;4.00;;;3.70;;
9976;SDS011;5029;47.378;11.776;2023-02-28T09:31:27;5.27;;;4.40;;
9976;SDS011;5029;47.378;11.776;2023-02-28T09:36:31;4.47;;;4.07;;
9976;SDS011;5029;47.378;11.776;2023-02-28T09:41:46;5.30;;;4.80;;
9976;SDS011;5029;47.378;11.776;2023-02-28T09:46:55;4.73;;;4.33;;
9976;SDS011;5029;47.378;11.776;2023-02-28T09:52:03;5.57;;;5.00;;
9976;SDS011;5029;47.378;11.776;2023-02-28T09:57:14;4.70;;;4.30;;
9976;SDS011;5029;47.378;11.776;2023-02-28T10:08:11;4.70;;;4.30;;
9976;SDS011;5029;47.378;11.776;2023-02-28T10:13:21;5.17;;;4.73;;
9976;SDS011;5029;47.378;11.776;2023-02-28T10:18:32;5.27;;;4.77;;
9976;SDS011;5029;47.378;11.776;2023-02-28T10:23:42;5.23;;;4.73;;
9976;SDS011;5029;47.378;11.776;2023-02-28T10:28:46;5.77;;;5.20;;
9976;SDS011;5029;47.378;11.776;2023-02-28T10:33:51;5.40;;;4.90;;
9976;SDS011;5029;47.378;11.776;2023-02-28T10:38:54;5.20;;;4.70;;
9976;SDS011;5029;47.378;11.776;2023-02-28T10:44:12;6.67;;;4.97;;
9976;SDS011;5029;47.378;11.776;2023-02-28T10:49:19;5.33;;;4.83;;
9976;SDS011;5029;47.378;11.776;2023-02-28T10:54:26;4.87;;;4.37;;
9976;SDS011;5029;47.378;11.776;2023-02-28T10:59:32;4.90;;;4.40;;
9976;SDS011;5029;47.378;11.776;2023-02-28T11:04:37;5.30;;;4.80;;
9976;SDS011;5029;47.378;11.776;2023-02-28T11:09:41;5.37;;;4.63;;
9976;SDS011;5029;47.378;11.776;2023-02-28T11:14:49;5.97;;;4.93;;
9976;SDS011;5029;47.378;11.776;2023-02-28T11:19:57;6.57;;;5.10;;
9976;SDS011;5029;47.378;11.776;2023-02-28T11:25:06;6.60;;;5.30;;
9976;SDS011;5029;47.378;11.776;2023-02-28T11:30:26;7.57;;;5.60;;
9976;SDS011;5029;47.378;11.776;2023-02-28T11:35:38;5.73;;;5.13;;
9976;SDS011;5029;47.378;11.776;2023-02-28T11:40:43;6.60;;;5.57;;
9976;SDS011;5029;47.378;11.776;2023-02-28T11:45:55;5.20;;;4.70;;
9976;SDS011;5029;47.378;11.776;2023-02-28T11:51:13;5.37;;;4.50;;
9976;SDS011;5029;47.378;11.776;2023-02-28T11:56:22;4.80;;;4.40;;
9976;SDS011;5029;47.378;11.776;2023-02-28T12:01:45;4.57;;;4.17;;
9976;SDS011;5029;47.378;11.776;2023-02-28T12:07:09;5.10;;;4.60;;
9976;SDS011;5029;47.378;11.776;2023-02-28T12:12:23;5.30;;;4.80;;
9976;SDS011;5029;47.378;11.776;2023-02-28T12:17:43;5.50;;;5.00;;
9976;SDS011;5029;47.378;11.776;2023-02-28T12:23:01;5.00;;;4.60;;
9976;SDS011;5029;47.378;11.776;2023-02-28T12:28:25;5.40;;;4.90;;
9976;SDS011;5029;47.378;11.776;2023-02-28T12:33:32;5.90;;;5.30;;
9976;SDS011;5029;47.378;11.776;2023-02-28T12:38:43;4.93;;;4.50;;
9976;SDS011;5029;47.378;11.776;2023-02-28T12:43:51;6.17;;;5.63;;
9976;SDS011;5029;47.378;11.776;2023-02-28T12:49:00;6.17;;;5.33;;
9976;SDS011;5029;47.378;11.776;2023-02-28T12:54:12;6.63;;;5.67;;
9976;SDS011;5029;47.378;11.776;2023-02-28T12:59:23;7.00;;;4.90;;
9976;SDS011;5029;47.378;11.776;2023-02-28T13:10:38;6.07;;;5.47;;
9976;SDS011;5029;47.378;11.776;2023-02-28T13:15:57;5.13;;;4.63;;
9976;SDS011;5029;47.378;11.776;2023-02-28T13:21:02;5.87;;;5.37;;
9976;SDS011;5029;47.378;11.776;2023-02-28T13:26:09;5.80;;;5.17;;
9976;SDS011;5029;47.378;11.776;2023-02-28T13:31:16;4.40;;;3.97;;
9976;SDS011;5029;47.378;11.776;2023-02-28T13:36:25;5.77;;;5.23;;
9976;SDS011;5029;47.378;11.776;2023-02-28T13:41:43;6.00;;;5.40;;
9976;SDS011;5029;47.378;11.776;2023-02-28T13:52:26;6.23;;;5.60;;
9976;SDS011;5029;47.378;11.776;2023-02-28T13:57:33;6.33;;;5.73;;
9976;SDS011;5029;47.378;11.776;2023-02-28T14:02:57;6.50;;;5.90;;
9976;SDS011;5029;47.378;11.776;2023-02-28T14:08:17;6.60;;;5.83;;
9976;SDS011;5029;47.378;11.776;2023-02-28T14:13:38;6.90;;;6.20;;
9976;SDS011;5029;47.378;11.776;2023-02-28T14:18:48;8.37;;;5.83;;
9976;SDS011;5029;47.378;11.776;2023-02-28T14:35:21;7.20;;;6.50;;
9976;SDS011;5029;47.378;11.776;2023-02-28T14:40:43;7.47;;;6.70;;
9976;SDS011;5029;47.378;11.776;2023-02-28T14:45:50;7.00;;;6.30;;
9976;SDS011;5029;47.378;11.776;2023-02-28T14:50:58;6.50;;;5.90;;
9976;SDS011;5029;47.378;11.776;2023-02-28T14:56:02;6.90;;;6.20;;
9976;SDS011;5029;47.378;11.776;2023-02-28T15:01:10;7.07;;;6.27;;
9976;SDS011;5029;47.378;11.776;2023-02-28T15:06:14;6.33;;;5.73;;
9976;SDS011;5029;47.378;11.776;2023-02-28T15:11:19;7.57;;;6.53;;
9976;SDS011;5029;47.378;11.776;2023-02-28T15:16:25;6.67;;;6.07;;
9976;SDS011;5029;47.378;11.776;2023-02-28T15:21:33;6.57;;;5.50;;
9976;SDS011;5029;47.378;11.776;2023-02-28T15:26:38;7.27;;;6.57;;
9976;SDS011;5029;47.378;11.776;2023-02-28T15:31:48;7.60;;;6.90;;
9976;SDS011;5029;47.378;11.776;2023-02-28T15:36:58;8.17;;;7.30;;
9976;SDS011;5029;47.378;11.776;2023-02-28T15:42:10;8.40;;;6.70;;
9976;SDS011;5029;47.378;11.776;2023-02-28T15:47:16;7.57;;;6.77;;
9976;SDS011;5029;47.378;11.776;2023-02-28T15:52:24;7.57;;;6.70;;
9976;SDS011;5029;47.378;11.776;2023-02-28T15:57:33;8.70;;;7.90;;
9976;SDS011;5029;47.378;11.776;2023-02-28T16:02:37;9.73;;;8.00;;
9976;SDS011;5029;47.378;11.776;2023-02-28T16:07:42;8.30;;;7.57;;
9976;SDS011;5029;47.378;11.776;2023-02-28T16:12:46;8.73;;;7.83;;
9976;SDS011;5029;47.378;11.776;2023-02-28T16:17:51;8.80;;;7.90;;
9976;SDS011;5029;47.378;11.776;2023-02-28T16:22:55;11.13;;;9.60;;
9976;SDS011;5029;47.378;11.776;2023-02-28T16:28:02;10.10;;;8.43;;
9976;SDS011;5029;47.378;11.776;2023-02-28T16:33:08;8.73;;;7.83;;
9976;SDS011;5029;47.378;11.776;2023-02-28T16:38:12;8.43;;;7.13;;
9976;SDS011;5029;47.378;11.776;2023-02-28T16:43:16;11.27;;;8.83;;
9976;SDS011;5029;47.378;11.776;2023-02-28T16:48:24;9.53;;;8.37;;
9976;SDS011;5029;47.378;11.776;2023-02-28T16:53:28;9.83;;;8.20;;
9976;SDS011;5029;47.378;11.776;2023-02-28T16:58:32;11.20;;;8.43;;
9976;SDS011;5029;47.378;11.776;2023-02-28T17:03:39;11.23;;;9.67;;
9976;SDS011;5029;47.378;11.776;2023-02-28T17:08:43;10.67;;;8.90;;
9976;SDS011;5029;47.378;11.776;2023-02-28T17:13:47;9.53;;;8.53;;
9976;SDS011;5029;47.378;11.776;2023-02-28T17:18:52;8.97;;;8.07;;
9976;SDS011;5029;47.378;11.776;2023-02-28T17:23:57;10.13;;;9.10;;
9976;SDS011;5029;47.378;11.776;2023-02-28T17:29:01;10.07;;;9.07;;
9976;SDS011;5029;47.378;11.776;2023-02-28T17:34:07;11.30;;;10.10;;
9976;SDS011;5029;47.378;11.776;2023-02-28T17:39:13;13.07;;;11.73;;
9976;SDS011;5029;47.378;11.776;2023-02-28T17:44:23;11.97;;;10.77;;
9976;SDS011;5029;47.378;11.776;2023-02-28T17:49:30;16.80;;;15.00;;
9976;SDS011;5029;47.378;11.776;2023-02-28T17:54:35;12.03;;;10.47;;
9976;SDS011;5029;47.378;11.776;2023-02-28T17:59:38;11.33;;;10.23;;
9976;SDS011;5029;47.378;11.776;2023-02-28T18:04:45;12.00;;;10.40;;
9976;SDS011;5029;47.378;11.776;2023-02-28T18:09:48;11.63;;;10.43;;
9976;SDS011;5029;47.378;11.776;2023-02-28T18:14:52;10.07;;;7.37;;
9976;SDS011;5029;47.378;11.776;2023-02-28T18:19:58;11.10;;;9.93;;
9976;SDS011;5029;47.378;11.776;2023-02-28T18:25:03;10.83;;;9.50;;
9976;SDS011;5029;47.378;11.776;2023-02-28T18:30:11;11.37;;;10.20;;
9976;SDS011;5029;47.378;11.776;2023-02-28T18:35:18;11.90;;;10.50;;
9976;SDS011;5029;47.378;11.776;2023-02-28T18:40:36;14.77;;;12.77;;
9976;SDS011;5029;47.378;11.776;2023-02-28T18:45:41;11.40;;;10.20;;
9976;SDS011;5029;47.378;11.776;2023-02-28T18:50:51;11.83;;;10.37;;
9976;SDS011;5029;47.378;11.776;2023-02-28T18:55:58;12.20;;;10.97;;
9976;SDS011;5029;47.378;11.776;2023-02-28T19:01:03;13.27;;;10.57;;
9976;SDS011;5029;47.378;11.776;2023-02-28T19:06:22;12.00;;;10.80;;
9976;SDS011;5029;47.378;11.776;2023-02-28T19:11:28;12.63;;;9.90;;
9976;SDS011;5029;47.378;11.776;2023-02-28T19:16:33;12.50;;;11.27;;
9976;SDS011;5029;47.378;11.776;2023-02-28T19:21:40;11.93;;;10.70;;
9976;SDS011;5029;47.378;11.776;2023-02-28T19:26:45;12.90;;;11.17;;
9976;SDS011;5029;47.378;11.776;2023-02-28T19:31:50;13.27;;;11.17;;
9976;SDS011;5029;47.378;11.776;2023-02-28T19:36:56;12.63;;;11.33;;
9976;SDS011;5029;47.378;11.776;2023-02-28T19:42:01;11.93;;;10.63;;
9976;SDS011;5029;47.378;11.776;2023-02-28T19:47:08;11.90;;;10.70;;
9976;SDS011;5029;47.378;11.776;2023-02-28T19:52:15;11.50;;;10.33;;
9976;SDS011;5029;47.378;11.776;2023-02-28T19:57:20;12.83;;;11.17;;
9976;SDS011;5029;47.378;11.776;2023-02-28T20:02:28;11.10;;;9.90;;
9976;SDS011;5029;47.378;11.776;2023-02-28T20:07:35;12.53;;;11.23;;
9976;SDS011;5029;47.378;11.776;2023-02-28T20:12:42;12.37;;;10.40;;
9976;SDS011;5029;47.378;11.776;2023-02-28T20:17:47;12.73;;;10.83;;
9976;SDS011;5029;47.378;11.776;2023-02-28T20:22:54;11.03;;;9.93;;
9976;SDS011;5029;47.378;11.776;2023-02-28T20:27:59;19.70;;;17.60;;
9976;SDS011;5029;47.378;11.776;2023-02-28T20:33:04;12.90;;;11.60;;
9976;SDS011;5029;47.378;11.776;2023-02-28T20:38:10;11.77;;;10.60;;
9976;SDS011;5029;47.378;11.776;2023-02-28T20:43:21;11.00;;;10.00;;
9976;SDS011;5029;47.378;11.776;2023-02-28T20:48:26;11.50;;;10.40;;
9976;SDS011;5029;47.378;11.776;2023-02-28T20:53:33;12.33;;;11.03;;
9976;SDS011;5029;47.378;11.776;2023-02-28T20:58:38;11.90;;;10.67;;
9976;SDS011;5029;47.378;11.776;2023-02-28T21:03:42;12.40;;;11.10;;
9976;SDS011;5029;47.378;11.776;2023-02-28T21:08:48;13.50;;;12.10;;
9976;SDS011;5029;47.378;11.776;2023-02-28T21:13:52;12.13;;;10.93;;
9976;SDS011;5029;47.378;11.776;2023-02-28T21:18:57;11.90;;;10.63;;
9976;SDS011;5029;47.378;11.776;2023-02-28T21:24:06;11.67;;;10.57;;
9976;SDS011;5029;47.378;11.776;2023-02-28T21:29:10;12.70;;;11.47;;
9976;SDS011;5029;47.378;11.776;2023-02-28T21:34:15;13.03;;;11.73;;
9976;SDS011;5029;47.378;11.776;2023-02-28T21:39:23;11.90;;;10.70;;
9976;SDS011;5029;47.378;11.776;2023-02-28T21:44:30;12.70;;;11.50;;
9976;SDS011;5029;47.378;11.776;2023-02-28T21:49:36;11.97;;;10.67;;
9976;SDS011;5029;47.378;11.776;2023-02-28T21:54:41;12.67;;;11.37;;
9976;SDS011;5029;47.378;11.776;2023-02-28T21:59:45;12.47;;;11.17;;
9976;SDS011;5029;47.378;11.776;2023-02-28T22:04:48;11.10;;;9.93;;
9976;SDS011;5029;47.378;11.776;2023-02-28T22:09:53;11.90;;;10.70;;
9976;SDS011;5029;47.378;11.776;2023-02-28T22:14:57;11.70;;;10.50;;
9976;SDS011;5029;47.378;11.776;2023-02-28T22:20:00;12.87;;;11.23;;
9976;SDS011;5029;47.378;11.776;2023-02-28T22:25:06;11.90;;;10.70;;
9976;SDS011;5029;47.378;11.776;2023-02-28T22:30:10;12.77;;;11.40;;
9976;SDS011;5029;47.378;11.776;2023-02-28T22:35:14;12.37;;;11.13;;
9976;SDS011;5029;47.378;11.776;2023-02-28T22:40:21;12.17;;;10.97;;
9976;SDS011;5029;47.378;11.776;2023-02-28T22:45:24;12.20;;;11.00;;
9976;SDS011;5029;47.378;11.776;2023-02-28T22:50:28;12.47;;;10.70;;
9976;SDS011;5029;47.378;11.776;2023-02-28T22:55:32;11.40;;;10.30;;
9976;SDS011;5029;47.378;11.776;2023-02-28T23:00:36;11.30;;;10.17;;
9976;SDS011;5029;47.378;11.776;2023-02-28T23:05:39;12.03;;;10.83;;
9976;SDS011;5029;47.378;11.776;2023-02-28T23:10:44;12.00;;;10.80;;
9976;SDS011;5029;47.378;11.776;2023-02-28T23:15:47;11.80;;;10.70;;
9976;SDS011;5029;47.378;11.776;2023-02-28T23:20:51;12.27;;;11.07;;
9976;SDS011;5029;47.378;11.776;2023-02-28T23:25:59;12.07;;;10.87;;
9976;SDS011;5029;47.378;11.776;2023-02-28T23:31:02;12.47;;;11.27;;
9976;SDS011;5029;47.378;11.776;2023-02-28T23:36:22;12.37;;;11.13;;
9976;SDS011;5029;47.378;11.776;2023-02-28T23:41:27;12.93;;;11.03;;
9976;SDS011;5029;47.378;11.776;2023-02-28T23:46:30;12.03;;;10.83;;
9976;SDS011;5029;47.378;11.776;2023-02-28T23:51:33;12.70;;;11.50;;
9976;SDS011;5029;47.378;11.776;2023-02-28T23:56:38;13.00;;;11.70;;
